createdAt,value
2019-04-10T00:01:19.627Z,59880.68
2019-04-10T00:03:48.327Z,59891.86
2019-04-10T00:06:18.140Z,59870.52
2019-04-10T00:08:46.994Z,59853.25
2019-04-10T00:11:16.479Z,59853.25
2019-04-10T00:13:44.980Z,59869.51
2019-04-10T00:16:13.966Z,59886.78
2019-04-10T00:18:42.658Z,59904.05
2019-04-10T00:21:11.297Z,59889.83
2019-04-10T00:23:40.022Z,59889.83
2019-04-10T00:26:08.431Z,59890.84
2019-04-10T00:28:37.090Z,59871.54
2019-04-10T00:31:05.484Z,59860.36
2019-04-10T00:33:34.629Z,59860.36
2019-04-10T00:36:03.726Z,59877.64
2019-04-10T00:38:32.383Z,59871.54
2019-04-10T00:41:00.785Z,59902.02
2019-04-10T00:43:29.182Z,59902.02
2019-04-10T00:45:58.356Z,59875.61
2019-04-10T00:48:26.748Z,59874.59
2019-04-10T00:50:55.137Z,59874.59
2019-04-10T00:53:23.620Z,59868.49
2019-04-10T00:55:52.344Z,59887.80
2019-04-10T00:58:21.040Z,59876.62
2019-04-10T01:00:50.333Z,59890.84
2019-04-10T01:03:35.896Z,59890.84
2019-04-10T01:06:04.457Z,59896.94
2019-04-10T01:08:32.941Z,59881.70
2019-04-10T01:11:01.337Z,59865.44
2019-04-10T01:13:29.721Z,59865.44
2019-04-10T01:15:58.722Z,59855.28
2019-04-10T01:18:27.077Z,59855.28
2019-04-10T01:20:55.762Z,59880.68
2019-04-10T01:23:24.643Z,59893.89
2019-04-10T01:25:53.336Z,59884.75
2019-04-10T01:28:22.725Z,59879.67
2019-04-10T01:30:51.146Z,59883.73
2019-04-10T01:33:20.514Z,59883.73
2019-04-10T01:35:49.039Z,59887.80
2019-04-10T01:38:17.613Z,59887.80
2019-04-10T01:40:46.304Z,59897.96
2019-04-10T01:43:18.303Z,59897.96
2019-04-10T01:45:45.975Z,59910.15
2019-04-10T01:48:15.389Z,59878.65
2019-04-10T01:50:44.454Z,59905.07
2019-04-10T01:53:13.418Z,59897.96
2019-04-10T01:55:42.996Z,59889.83
2019-04-10T01:58:16.936Z,59889.83
2019-04-10T02:00:48.227Z,59882.71
2019-04-10T02:03:16.843Z,59899.99
2019-04-10T02:05:45.230Z,59899.99
2019-04-10T02:08:16.073Z,59905.07
2019-04-10T02:10:44.672Z,59882.71
2019-04-10T02:13:12.987Z,59893.89
2019-04-10T02:15:41.919Z,59908.12
2019-04-10T02:18:10.961Z,59882.71
2019-04-10T02:20:39.666Z,59906.09
2019-04-10T02:23:08.072Z,59906.09
2019-04-10T02:25:36.942Z,59905.07
2019-04-10T02:28:05.559Z,59896.94
2019-04-10T02:30:34.770Z,59891.86
2019-04-10T02:33:04.753Z,59935.55
2019-04-10T02:35:36.132Z,59887.80
2019-04-10T02:38:21.176Z,59887.80
2019-04-10T02:40:34.957Z,59905.07
2019-04-10T02:43:05.437Z,59919.29
2019-04-10T02:45:34.623Z,59894.91
2019-04-10T02:48:04.039Z,59886.78
2019-04-10T02:50:33.366Z,59910.15
2019-04-10T02:53:03.285Z,59888.81
2019-04-10T02:55:33.192Z,59916.25
2019-04-10T02:58:02.576Z,59903.04
2019-04-10T03:00:31.494Z,59885.76
2019-04-10T03:03:01.299Z,59919.29
2019-04-10T03:05:30.488Z,59903.04
2019-04-10T03:08:00.292Z,59890.84
2019-04-10T03:10:36.900Z,59882.71
2019-04-10T03:13:00.572Z,59888.81
2019-04-10T03:15:31.021Z,59910.15
2019-04-10T03:18:00.770Z,59897.96
2019-04-10T03:20:30.059Z,59891.86
2019-04-10T03:22:58.815Z,59928.44
2019-04-10T03:25:27.200Z,59920.31
2019-04-10T03:27:55.884Z,59897.96
2019-04-10T03:30:24.728Z,59910.15
2019-04-10T03:33:05.985Z,59883.73
2019-04-10T03:35:32.687Z,59901.00
2019-04-10T03:38:01.624Z,59908.12
2019-04-10T03:40:29.974Z,59887.80
2019-04-10T03:42:58.379Z,59879.67
2019-04-10T03:45:26.864Z,59910.15
2019-04-10T03:47:55.800Z,59904.05
2019-04-10T03:50:25.771Z,59910.15
2019-04-10T03:52:54.195Z,59910.15
2019-04-10T03:55:22.995Z,59898.97
2019-04-10T03:57:51.985Z,59937.58
2019-04-10T04:00:21.123Z,59903.04
2019-04-10T04:02:49.831Z,59898.97
2019-04-10T04:05:18.519Z,59901.00
2019-04-10T04:07:46.932Z,59940.63
2019-04-10T04:10:16.256Z,59891.86
2019-04-10T04:12:44.693Z,59913.20
2019-04-10T04:15:13.652Z,59921.32
2019-04-10T04:17:42.295Z,59887.80
2019-04-10T04:20:10.973Z,59910.15
2019-04-10T04:22:39.376Z,59891.86
2019-04-10T04:25:08.689Z,59878.65
2019-04-10T04:27:37.783Z,59910.15
2019-04-10T04:30:10.493Z,59921.32
2019-04-10T04:32:39.777Z,59901.00
2019-04-10T04:35:09.075Z,59904.05
2019-04-10T04:37:37.947Z,59928.44
2019-04-10T04:40:07.001Z,59913.20
2019-04-10T04:42:35.387Z,59918.28
2019-04-10T04:45:05.192Z,59906.09
2019-04-10T04:47:33.747Z,59894.91
2019-04-10T04:50:02.225Z,59914.21
2019-04-10T04:52:30.607Z,59880.68
2019-04-10T04:54:59.270Z,59915.23
2019-04-10T04:57:28.759Z,59943.68
2019-04-10T04:59:57.478Z,59885.76
2019-04-10T05:02:26.207Z,59921.32
2019-04-10T05:04:54.677Z,59933.52
2019-04-10T05:07:23.245Z,59927.42
2019-04-10T05:09:52.496Z,59891.86
2019-04-10T05:12:20.994Z,59924.37
2019-04-10T05:14:49.606Z,59927.42
2019-04-10T05:17:18.454Z,59907.10
2019-04-10T05:19:46.930Z,59913.20
2019-04-10T05:22:15.299Z,59932.50
2019-04-10T05:24:44.650Z,59896.94
2019-04-10T05:27:14.115Z,59898.97
2019-04-10T05:29:42.981Z,59885.76
2019-04-10T05:32:11.508Z,59910.15
2019-04-10T05:34:40.412Z,59903.04
2019-04-10T05:37:09.393Z,59884.75
2019-04-10T05:39:43.420Z,59935.55
2019-04-10T05:42:08.481Z,59888.81
2019-04-10T05:44:38.061Z,59911.17
2019-04-10T05:47:07.558Z,59886.78
2019-04-10T05:49:35.953Z,59905.07
2019-04-10T05:52:04.409Z,59905.07
2019-04-10T05:54:33.334Z,59895.93
2019-04-10T05:57:01.821Z,59918.28
2019-04-10T05:59:30.535Z,59908.12
2019-04-10T06:01:59.039Z,59913.20
2019-04-10T06:04:27.587Z,59930.47
2019-04-10T06:06:56.873Z,59894.91
2019-04-10T06:09:26.798Z,59937.58
2019-04-10T06:11:55.415Z,59877.64
2019-04-10T06:14:24.202Z,59908.12
2019-04-10T06:16:53.073Z,59911.17
2019-04-10T06:19:22.011Z,59888.81
2019-04-10T06:21:50.543Z,59920.31
2019-04-10T06:24:18.947Z,59903.04
2019-04-10T06:26:47.925Z,59884.75
2019-04-10T06:29:17.119Z,59898.97
2019-04-10T06:31:45.698Z,59901.00
2019-04-10T06:34:16.157Z,59901.00
2019-04-10T06:36:45.607Z,59883.73
2019-04-10T06:39:14.290Z,59896.94
2019-04-10T06:41:43.185Z,59899.99
2019-04-10T06:44:11.872Z,59927.42
2019-04-10T06:46:41.531Z,59921.32
2019-04-10T06:49:10.291Z,59927.42
2019-04-10T06:51:38.690Z,59903.04
2019-04-10T06:54:11.011Z,59907.10
2019-04-10T06:56:37.567Z,59935.55
2019-04-10T06:59:06.687Z,59917.26
2019-04-10T07:01:46.834Z,59884.75
2019-04-10T07:04:07.915Z,59894.91
2019-04-10T07:06:51.621Z,59912.18
2019-04-10T07:09:09.554Z,59887.80
2019-04-10T07:11:38.607Z,59895.93
2019-04-10T07:14:10.222Z,59914.21
2019-04-10T07:16:37.362Z,59911.17
2019-04-10T07:19:08.593Z,59879.67
2019-04-10T07:21:37.111Z,59892.88
2019-04-10T07:24:08.311Z,59936.57
2019-04-10T07:26:41.399Z,59901.00
2019-04-10T07:29:06.151Z,59902.02
2019-04-10T07:31:36.438Z,59911.17
2019-04-10T07:34:04.843Z,59887.80
2019-04-10T07:36:33.473Z,59896.94
2019-04-10T07:39:01.876Z,59914.21
2019-04-10T07:41:31.500Z,59910.15
2019-04-10T07:44:00.166Z,59940.63
2019-04-10T07:46:28.553Z,59909.13
2019-04-10T07:48:56.951Z,59908.12
2019-04-10T07:51:25.677Z,59907.10
2019-04-10T07:53:54.016Z,59890.84
2019-04-10T07:56:22.709Z,59880.68
2019-04-10T07:58:51.760Z,59910.15
2019-04-10T08:01:20.455Z,59907.10
2019-04-10T08:03:51.288Z,59892.88
2019-04-10T08:06:19.954Z,59885.76
2019-04-10T08:08:49.192Z,59890.84
2019-04-10T08:11:18.050Z,59889.83
2019-04-10T08:13:47.094Z,59911.17
2019-04-10T08:16:15.522Z,59911.17
2019-04-10T08:18:44.191Z,59866.46
2019-04-10T08:21:13.486Z,59887.80
2019-04-10T08:23:42.385Z,59887.80
2019-04-10T08:26:10.849Z,59889.83
2019-04-10T08:28:39.236Z,59879.67
2019-04-10T08:31:08.653Z,59889.83
2019-04-10T08:33:37.125Z,59895.93
2019-04-10T08:36:05.602Z,59895.93
2019-04-10T08:38:34.501Z,59871.54
2019-04-10T08:41:02.976Z,59871.54
2019-04-10T08:43:32.392Z,59871.54
2019-04-10T08:46:02.037Z,59872.55
2019-04-10T08:48:32.992Z,59868.49
2019-04-10T08:51:01.448Z,59882.71
2019-04-10T08:53:30.661Z,59894.91
2019-04-10T08:55:59.354Z,59887.80
2019-04-10T08:58:27.768Z,59884.75
2019-04-10T09:00:56.585Z,59907.10
2019-04-10T09:03:25.322Z,59882.71
2019-04-10T09:05:55.163Z,59882.71
2019-04-10T09:08:24.611Z,59880.68
2019-04-10T09:10:54.457Z,59884.75
2019-04-10T09:13:24.222Z,59928.44
2019-04-10T09:15:54.031Z,59870.52
2019-04-10T09:18:23.151Z,59877.64
2019-04-10T09:20:51.540Z,59892.88
2019-04-10T09:23:33.022Z,59897.96
2019-04-10T09:25:51.278Z,59872.55
2019-04-10T09:28:19.764Z,59872.55
2019-04-10T09:30:49.055Z,59878.65
2019-04-10T09:33:24.295Z,59886.78
2019-04-10T09:35:48.843Z,59863.41
2019-04-10T09:38:17.401Z,59839.03
2019-04-10T09:40:46.751Z,59839.03
2019-04-10T09:43:15.774Z,60211.93
2019-04-10T09:45:44.211Z,60503.57
2019-04-10T09:48:12.818Z,60500.52
2019-04-10T09:50:41.825Z,60482.23
2019-04-10T09:53:10.769Z,60479.18
2019-04-10T09:55:40.292Z,60480.20
2019-04-10T09:58:08.872Z,60454.79
2019-04-10T10:00:38.160Z,60469.02
2019-04-10T10:03:07.666Z,60471.05
2019-04-10T10:05:36.942Z,60462.92
2019-04-10T10:08:06.481Z,60443.61
2019-04-10T10:10:37.227Z,60478.16
2019-04-10T10:13:06.175Z,60478.16
2019-04-10T10:15:35.598Z,60441.58
2019-04-10T10:18:04.015Z,60446.66
2019-04-10T10:20:32.413Z,60457.84
2019-04-10T10:23:01.311Z,60448.70
2019-04-10T10:25:30.982Z,60455.81
2019-04-10T10:27:59.600Z,60431.42
2019-04-10T10:30:27.977Z,60456.82
2019-04-10T10:32:57.265Z,60452.76
2019-04-10T10:35:25.753Z,60422.27
2019-04-10T10:37:54.732Z,60448.70
2019-04-10T10:40:23.537Z,60446.66
2019-04-10T10:42:52.466Z,60410.08
2019-04-10T10:45:22.775Z,60403.98
2019-04-10T10:47:51.319Z,60416.18
2019-04-10T10:50:21.300Z,60415.16
2019-04-10T10:52:50.187Z,60431.42
2019-04-10T10:55:18.606Z,60415.16
2019-04-10T10:57:47.274Z,60405.00
2019-04-10T11:00:17.301Z,60393.82
2019-04-10T11:02:45.685Z,60415.16
2019-04-10T11:05:14.137Z,60410.08
2019-04-10T11:07:42.992Z,60414.14
2019-04-10T11:10:12.606Z,60398.90
2019-04-10T11:12:42.266Z,60417.20
2019-04-10T11:15:12.320Z,60422.27
2019-04-10T11:17:42.178Z,60403.98
2019-04-10T11:20:12.743Z,60418.21
2019-04-10T11:22:42.408Z,60413.13
2019-04-10T11:25:12.102Z,60421.26
2019-04-10T11:27:42.060Z,60426.34
2019-04-10T11:30:12.515Z,60394.84
2019-04-10T11:32:42.265Z,60425.32
2019-04-10T11:35:11.249Z,60406.02
2019-04-10T11:37:44.892Z,60413.13
2019-04-10T11:40:12.483Z,60416.18
2019-04-10T11:42:42.772Z,60421.26
2019-04-10T11:45:16.177Z,60414.14
2019-04-10T11:47:42.566Z,60426.34
2019-04-10T11:50:15.395Z,60422.27
2019-04-10T11:55:19.804Z,60418.21
2019-04-10T11:57:46.980Z,60402.97
2019-04-10T12:00:20.372Z,60419.23
2019-04-10T12:02:50.377Z,60435.48
2019-04-10T12:05:19.935Z,60410.08
2019-04-10T12:08:10.977Z,60389.76
2019-04-10T12:12:49.931Z,60428.37
2019-04-10T12:15:20.456Z,60428.37
2019-04-10T12:17:49.776Z,60413.13
2019-04-10T12:20:18.763Z,60417.20
2019-04-10T12:22:48.306Z,60396.87
2019-04-10T12:25:16.664Z,60399.92
2019-04-10T12:27:45.610Z,60395.86
2019-04-10T12:30:15.174Z,60407.03
2019-04-10T12:32:43.654Z,60397.89
2019-04-10T12:35:13.692Z,60437.52
2019-04-10T12:37:43.351Z,60420.24
2019-04-10T12:40:12.378Z,60410.08
2019-04-10T12:42:41.066Z,60430.40
2019-04-10T12:45:09.887Z,60399.92
2019-04-10T12:47:39.740Z,60425.32
2019-04-10T12:50:08.587Z,60418.21
2019-04-10T12:52:36.973Z,60402.97
2019-04-10T12:55:08.860Z,60417.20
2019-04-10T12:57:37.340Z,60423.29
2019-04-10T13:00:09.717Z,60407.03
2019-04-10T13:02:38.732Z,60418.21
2019-04-10T13:05:07.687Z,60426.34
2019-04-10T13:07:36.082Z,60419.23
2019-04-10T13:10:08.610Z,60422.27
2019-04-10T13:12:37.655Z,60440.57
2019-04-10T13:15:08.026Z,60416.18
2019-04-10T13:17:36.413Z,60415.16
2019-04-10T13:20:10.385Z,60396.87
2019-04-10T13:22:40.114Z,60421.26
2019-04-10T13:25:08.821Z,60406.02
2019-04-10T13:27:37.226Z,60424.31
2019-04-10T13:30:12.573Z,60406.02
2019-04-10T13:32:40.300Z,60441.58
2019-04-10T13:35:10.332Z,60426.34
2019-04-10T13:37:39.047Z,60390.77
2019-04-10T13:40:07.893Z,60419.23
2019-04-10T13:42:37.194Z,60417.20
2019-04-10T13:45:07.644Z,60431.42
2019-04-10T13:47:36.242Z,60411.10
2019-04-10T13:50:06.690Z,60444.63
2019-04-10T13:52:38.421Z,60429.39
2019-04-10T13:55:08.854Z,60425.32
2019-04-10T13:57:39.040Z,60430.40
2019-04-10T14:00:09.649Z,60418.21
2019-04-10T14:02:38.204Z,60428.37
2019-04-10T14:05:14.294Z,60407.03
2019-04-10T14:07:42.696Z,60445.65
2019-04-10T14:10:12.545Z,60423.29
2019-04-10T14:12:40.956Z,60413.13
2019-04-10T14:15:09.897Z,60430.40
2019-04-10T14:17:38.301Z,60410.08
2019-04-10T14:20:07.075Z,60417.20
2019-04-10T14:22:37.961Z,60431.42
2019-04-10T14:25:09.504Z,60420.24
2019-04-10T14:27:38.576Z,60426.34
2019-04-10T14:30:09.933Z,60418.21
2019-04-10T14:32:38.316Z,60430.40
2019-04-10T14:35:09.642Z,60438.53
2019-04-10T14:37:38.221Z,60416.18
2019-04-10T14:40:09.319Z,60417.20
2019-04-10T14:42:38.393Z,60430.40
2019-04-10T14:45:07.485Z,60420.24
2019-04-10T14:47:36.143Z,60431.42
2019-04-10T14:50:05.389Z,60429.39
2019-04-10T14:52:34.856Z,60430.40
2019-04-10T14:55:04.030Z,60436.50
2019-04-10T14:57:32.869Z,60426.34
2019-04-10T15:00:01.556Z,60420.24
2019-04-10T15:02:30.664Z,60435.48
2019-04-10T15:04:59.522Z,60442.60
2019-04-10T15:07:28.968Z,60434.47
2019-04-10T15:09:57.468Z,60430.40
2019-04-10T15:12:26.126Z,60419.23
2019-04-10T15:14:54.753Z,60419.23
2019-04-10T15:17:23.215Z,60407.03
2019-04-10T15:19:52.565Z,60424.31
2019-04-10T15:22:21.932Z,60429.39
2019-04-10T15:24:50.350Z,60437.52
2019-04-10T15:27:19.482Z,60438.53
2019-04-10T15:29:49.017Z,60438.53
2019-04-10T15:32:17.580Z,60416.18
2019-04-10T15:34:46.272Z,60453.78
2019-04-10T15:37:15.209Z,60406.02
2019-04-10T15:39:44.758Z,60462.92
2019-04-10T15:42:14.203Z,60417.20
2019-04-10T15:44:42.962Z,60431.42
2019-04-10T15:47:18.315Z,60390.77
2019-04-10T15:49:41.536Z,60422.27
2019-04-10T15:52:10.112Z,60475.12
2019-04-10T15:54:38.484Z,60432.44
2019-04-10T15:57:07.152Z,60426.34
2019-04-10T15:59:36.569Z,60413.13
2019-04-10T16:02:05.727Z,60439.55
2019-04-10T16:04:34.146Z,60453.78
2019-04-10T16:07:02.566Z,60434.47
2019-04-10T16:09:38.828Z,60446.66
2019-04-10T16:12:12.358Z,60475.12
2019-04-10T16:14:40.748Z,60435.48
2019-04-10T16:17:26.187Z,60436.50
2019-04-10T16:20:07.908Z,60420.24
2019-04-10T16:22:38.151Z,60453.78
2019-04-10T16:25:09.572Z,60471.05
2019-04-10T16:27:39.087Z,60442.60
2019-04-10T16:30:10.281Z,60452.76
2019-04-10T16:32:39.687Z,60450.73
2019-04-10T16:35:09.342Z,60458.86
2019-04-10T16:37:37.994Z,60434.47
2019-04-10T16:40:10.036Z,60458.86
2019-04-10T16:42:39.893Z,60424.31
2019-04-10T16:45:10.095Z,60472.07
2019-04-10T16:47:38.824Z,60461.91
2019-04-10T16:50:08.808Z,60442.60
2019-04-10T16:52:37.504Z,60469.02
2019-04-10T16:55:10.393Z,60455.81
2019-04-10T16:57:38.875Z,60422.27
2019-04-10T17:00:08.207Z,60443.61
2019-04-10T17:02:36.610Z,60456.82
2019-04-10T17:05:08.203Z,60439.55
2019-04-10T17:07:36.680Z,60447.68
2019-04-10T17:10:14.073Z,60458.86
2019-04-10T17:12:40.076Z,60447.68
2019-04-10T17:15:10.311Z,60469.02
2019-04-10T17:17:38.886Z,60473.09
2019-04-10T17:20:08.549Z,60472.07
2019-04-10T17:22:43.510Z,60470.04
2019-04-10T17:25:07.940Z,60462.92
2019-04-10T17:27:37.494Z,60460.89
2019-04-10T17:30:08.024Z,60451.75
2019-04-10T17:32:36.689Z,60441.58
2019-04-10T17:35:09.507Z,60452.76
2019-04-10T17:37:38.491Z,60445.65
2019-04-10T17:40:24.194Z,60464.96
2019-04-10T17:42:41.031Z,60460.89
2019-04-10T17:45:10.150Z,60458.86
2019-04-10T17:47:38.879Z,60423.29
2019-04-10T17:50:09.357Z,60476.13
2019-04-10T17:52:38.159Z,60476.13
2019-04-10T17:55:09.375Z,60452.76
2019-04-10T17:57:40.196Z,60477.15
2019-04-10T18:00:16.867Z,60454.79
2019-04-10T18:02:46.338Z,60454.79
2019-04-10T18:05:15.020Z,60465.97
2019-04-10T18:07:43.995Z,60483.25
2019-04-10T18:10:13.982Z,60454.79
2019-04-10T18:12:42.406Z,60486.29
2019-04-10T18:15:11.522Z,60486.29
2019-04-10T18:17:40.864Z,60462.92
2019-04-10T18:20:10.513Z,60457.84
2019-04-10T18:22:38.946Z,60441.58
2019-04-10T18:25:08.196Z,60441.58
2019-04-10T18:27:36.595Z,60449.71
2019-04-10T18:30:07.817Z,60449.71
2019-04-10T18:32:36.334Z,60469.02
2019-04-10T18:35:06.785Z,60478.16
2019-04-10T18:37:35.401Z,60478.16
2019-04-10T18:40:05.364Z,60476.13
2019-04-10T18:42:33.804Z,60476.13
2019-04-10T18:45:02.204Z,60458.86
2019-04-10T18:47:32.406Z,60484.26
2019-04-10T18:50:01.216Z,60484.26
2019-04-10T18:52:31.662Z,60477.15
2019-04-10T18:55:00.490Z,60466.99
2019-04-10T18:57:30.488Z,60475.12
2019-04-10T19:00:06.648Z,60466.99
2019-04-10T19:02:52.916Z,60466.99
2019-04-10T19:05:23.555Z,60507.64
2019-04-10T19:07:51.983Z,60459.87
2019-04-10T19:10:20.404Z,60470.04
2019-04-10T19:12:48.866Z,60482.23
2019-04-10T19:15:17.254Z,60484.26
2019-04-10T19:17:46.816Z,60478.16
2019-04-10T19:20:15.774Z,60478.16
2019-04-10T19:22:44.654Z,60473.09
2019-04-10T19:25:14.497Z,60498.49
2019-04-10T19:27:42.967Z,60488.33
2019-04-10T19:30:17.157Z,60485.28
2019-04-10T19:32:46.139Z,60484.26
2019-04-10T19:35:15.597Z,60491.38
2019-04-10T19:37:45.704Z,60491.38
2019-04-10T19:40:15.923Z,60463.94
2019-04-10T19:42:44.457Z,60479.18
2019-04-10T19:45:13.328Z,60476.13
2019-04-10T19:47:42.276Z,60476.13
2019-04-10T19:50:11.166Z,60443.61
2019-04-10T19:52:40.326Z,60491.38
2019-04-10T19:55:08.971Z,60489.34
2019-04-10T19:57:37.493Z,60484.26
2019-04-10T20:00:10.219Z,60479.18
2019-04-10T20:02:40.066Z,60499.50
2019-04-10T20:05:09.472Z,60505.60
2019-04-10T20:07:37.859Z,60488.33
2019-04-10T20:10:06.687Z,60481.21
2019-04-10T20:12:35.329Z,60481.21
2019-04-10T20:15:06.448Z,60468.00
2019-04-10T20:17:35.752Z,60475.12
2019-04-10T20:20:06.987Z,60445.65
2019-04-10T20:22:36.907Z,60475.12
2019-04-10T20:25:06.263Z,60475.12
2019-04-10T20:27:36.154Z,60475.12
2019-04-10T20:30:07.816Z,60482.23
2019-04-10T20:32:36.453Z,60450.73
2019-04-10T20:35:06.101Z,60478.16
2019-04-10T20:37:34.578Z,60493.41
2019-04-10T20:40:03.549Z,60493.41
2019-04-10T20:42:32.195Z,60480.20
2019-04-10T20:45:00.956Z,60480.20
2019-04-10T20:47:29.566Z,60498.49
2019-04-10T20:49:57.969Z,60497.47
2019-04-10T20:52:26.454Z,60498.49
2019-04-10T20:54:55.233Z,60502.55
2019-04-10T20:57:24.021Z,60485.28
2019-04-10T20:59:53.780Z,60491.38
2019-04-10T21:02:22.551Z,60502.55
2019-04-10T21:05:00.532Z,60476.13
2019-04-10T21:07:25.561Z,60497.47
2019-04-10T21:09:54.515Z,60497.47
2019-04-10T21:12:23.796Z,60497.47
2019-04-10T21:14:52.624Z,60457.84
2019-04-10T21:17:21.001Z,60480.20
2019-04-10T21:19:49.484Z,60491.38
2019-04-10T21:22:17.883Z,60513.73
2019-04-10T21:24:46.273Z,60480.20
2019-04-10T21:27:14.663Z,60512.72
2019-04-10T21:29:47.370Z,60474.10
2019-04-10T21:32:21.865Z,60502.55
2019-04-10T21:34:51.162Z,60493.41
2019-04-10T21:37:19.871Z,60480.20
2019-04-10T21:39:48.419Z,60513.73
2019-04-10T21:42:22.232Z,60491.38
2019-04-10T21:44:47.053Z,60523.89
2019-04-10T21:47:15.395Z,60500.52
2019-04-10T21:49:44.217Z,60492.39
2019-04-10T21:52:12.900Z,60508.65
2019-04-10T21:54:49.661Z,60509.67
2019-04-10T21:57:11.453Z,60527.96
2019-04-10T21:59:39.829Z,60512.72
2019-04-10T22:02:08.588Z,60490.36
2019-04-10T22:04:37.281Z,60503.57
2019-04-10T22:07:23.840Z,60502.55
2019-04-10T22:10:10.576Z,60487.31
2019-04-10T22:12:43.603Z,60493.41
2019-04-10T22:15:11.398Z,60471.05
2019-04-10T22:17:40.470Z,60509.67
2019-04-10T22:20:09.627Z,60484.26
2019-04-10T22:22:39.235Z,60482.23
2019-04-10T22:25:07.777Z,60494.43
2019-04-10T22:27:36.179Z,60492.39
2019-04-10T22:30:08.342Z,60515.77
2019-04-10T22:32:37.103Z,60519.83
2019-04-10T22:35:07.224Z,60508.65
2019-04-10T22:37:35.891Z,60497.47
2019-04-10T22:40:06.585Z,60512.72
2019-04-10T22:42:42.473Z,60501.54
2019-04-10T22:45:27.513Z,60513.73
2019-04-10T22:47:56.989Z,60527.96
2019-04-10T22:50:27.348Z,60517.80
2019-04-10T22:52:56.984Z,60521.86
2019-04-10T22:55:26.018Z,60500.52
2019-04-10T22:57:54.804Z,60499.50
2019-04-10T23:00:32.414Z,60514.75
2019-04-10T23:03:01.330Z,60504.59
2019-04-10T23:05:30.393Z,60509.67
2019-04-10T23:07:59.139Z,60498.49
2019-04-10T23:10:28.755Z,60483.25
2019-04-10T23:13:01.655Z,60514.75
2019-04-10T23:15:27.680Z,60509.67
2019-04-10T23:17:57.238Z,60506.62
2019-04-10T23:20:25.982Z,60495.44
2019-04-10T23:22:54.941Z,60506.62
2019-04-10T23:25:24.683Z,60537.11
2019-04-10T23:27:55.214Z,60514.75
2019-04-10T23:30:24.512Z,60489.34
2019-04-10T23:32:53.544Z,60517.80
2019-04-10T23:35:22.194Z,60485.28
2019-04-10T23:37:51.110Z,60510.68
2019-04-10T23:40:20.923Z,60473.09
2019-04-10T23:43:01.212Z,59878.65
2019-04-10T23:45:19.864Z,59920.31
2019-04-10T23:47:48.654Z,59931.49
2019-04-10T23:50:18.439Z,59911.17
2019-04-10T23:52:47.890Z,59908.12
2019-04-10T23:55:17.692Z,59924.37
2019-04-10T23:57:46.436Z,59904.05
